sensor_id;sensor_type;location;lat;lon;timestamp;pressure;altitude;pressure_sealevel;temperature;humidity
50394;BME280;36308;46.312;25.288;2024-03-06T00:01:39;95775.81;;;2.49;60.56
50394;BME280;36308;46.312;25.288;2024-03-06T00:04:04;95789.47;;;2.52;60.71
50394;BME280;36308;46.312;25.288;2024-03-06T00:06:30;95786.66;;;2.47;60.33
50394;BME280;36308;46.312;25.288;2024-03-06T00:08:56;95789.50;;;2.46;60.81
50394;BME280;36308;46.312;25.288;2024-03-06T00:11:21;95793.16;;;2.45;60.55
50394;BME280;36308;46.312;25.288;2024-03-06T00:13:47;95789.31;;;2.40;60.42
50394;BME280;36308;46.312;25.288;2024-03-06T00:16:14;95790.34;;;2.39;60.82
50394;BME280;36308;46.312;25.288;2024-03-06T00:18:40;95782.44;;;2.33;60.04
50394;BME280;36308;46.312;25.288;2024-03-06T00:21:05;95786.91;;;2.32;60.61
50394;BME280;36308;46.312;25.288;2024-03-06T00:23:32;95799.56;;;2.30;60.56
50394;BME280;36308;46.312;25.288;2024-03-06T00:25:57;95807.75;;;2.29;61.12
50394;BME280;36308;46.312;25.288;2024-03-06T00:28:23;95803.06;;;2.24;60.90
50394;BME280;36308;46.312;25.288;2024-03-06T00:30:49;95799.19;;;2.20;60.62
50394;BME280;36308;46.312;25.288;2024-03-06T00:33:15;95799.44;;;2.18;60.80
50394;BME280;36308;46.312;25.288;2024-03-06T00:35:40;95805.97;;;2.16;60.93
50394;BME280;36308;46.312;25.288;2024-03-06T00:38:06;95803.53;;;2.14;60.96
50394;BME280;36308;46.312;25.288;2024-03-06T00:40:31;95800.28;;;2.12;61.26
50394;BME280;36308;46.312;25.288;2024-03-06T00:42:57;95801.50;;;2.10;60.67
50394;BME280;36308;46.312;25.288;2024-03-06T00:45:24;95796.63;;;2.07;61.19
50394;BME280;36308;46.312;25.288;2024-03-06T00:47:49;95805.59;;;2.06;61.47
50394;BME280;36308;46.312;25.288;2024-03-06T00:50:15;95805.00;;;2.04;61.00
50394;BME280;36308;46.312;25.288;2024-03-06T00:52:42;95800.72;;;2.02;61.74
50394;BME280;36308;46.312;25.288;2024-03-06T00:55:09;95798.69;;;1.98;61.58
50394;BME280;36308;46.312;25.288;2024-03-06T00:57:35;95801.13;;;1.99;61.38
50394;BME280;36308;46.312;25.288;2024-03-06T01:00:02;95792.97;;;1.94;61.76
50394;BME280;36308;46.312;25.288;2024-03-06T01:02:36;95802.59;;;1.95;61.58
50394;BME280;36308;46.312;25.288;2024-03-06T01:05:02;95804.41;;;1.95;61.58
50394;BME280;36308;46.312;25.288;2024-03-06T01:07:29;95799.72;;;1.90;61.67
50394;BME280;36308;46.312;25.288;2024-03-06T01:09:55;95806.06;;;1.89;61.38
50394;BME280;36308;46.312;25.288;2024-03-06T01:12:23;95805.25;;;1.82;61.17
50394;BME280;36308;46.312;25.288;2024-03-06T01:18:10;95804.44;;;1.81;61.81
50394;BME280;36308;46.312;25.288;2024-03-06T01:20:35;95803.84;;;1.79;61.35
50394;BME280;36308;46.312;25.288;2024-03-06T01:23:01;95807.94;;;1.75;61.92
50394;BME280;36308;46.312;25.288;2024-03-06T01:28:48;95810.78;;;1.74;61.66
50394;BME280;36308;46.312;25.288;2024-03-06T01:31:14;95813.66;;;1.72;61.51
50394;BME280;36308;46.312;25.288;2024-03-06T01:33:39;95813.06;;;1.70;61.88
50394;BME280;36308;46.312;25.288;2024-03-06T01:36:05;95818.75;;;1.67;61.80
50394;BME280;36308;46.312;25.288;2024-03-06T01:38:31;95819.97;;;1.65;61.72
50394;BME280;36308;46.312;25.288;2024-03-06T01:40:56;95815.09;;;1.61;61.55
50394;BME280;36308;46.312;25.288;2024-03-06T01:43:23;95809.41;;;1.58;61.53
50394;BME280;36308;46.312;25.288;2024-03-06T01:45:50;95809.00;;;1.54;61.88
50394;BME280;36308;46.312;25.288;2024-03-06T01:48:23;95813.06;;;1.50;61.95
50394;BME280;36308;46.312;25.288;2024-03-06T01:50:53;95821.63;;;1.52;61.91
50394;BME280;36308;46.312;25.288;2024-03-06T01:53:20;95800.44;;;1.46;62.21
50394;BME280;36308;46.312;25.288;2024-03-06T01:55:48;95816.72;;;1.49;61.83
50394;BME280;36308;46.312;25.288;2024-03-06T01:58:13;95819.59;;;1.48;62.04
50394;BME280;36308;46.312;25.288;2024-03-06T02:00:39;95811.84;;;1.46;62.43
50394;BME280;36308;46.312;25.288;2024-03-06T02:03:05;95814.69;;;1.45;62.37
50394;BME280;36308;46.312;25.288;2024-03-06T02:05:32;95821.44;;;1.40;61.99
50394;BME280;36308;46.312;25.288;2024-03-06T02:07:58;95817.78;;;1.41;62.52
50394;BME280;36308;46.312;25.288;2024-03-06T02:10:27;95810.22;;;1.38;61.98
50394;BME280;36308;46.312;25.288;2024-03-06T02:12:54;95814.09;;;1.36;62.10
50394;BME280;36308;46.312;25.288;2024-03-06T02:15:22;95818.38;;;1.37;62.67
50394;BME280;36308;46.312;25.288;2024-03-06T02:17:48;95823.28;;;1.33;62.02
50394;BME280;36308;46.312;25.288;2024-03-06T02:20:13;95820.81;;;1.32;62.32
50394;BME280;36308;46.312;25.288;2024-03-06T02:22:41;95822.06;;;1.29;62.22
50394;BME280;36308;46.312;25.288;2024-03-06T02:25:06;95811.06;;;1.19;62.36
50394;BME280;36308;46.312;25.288;2024-03-06T02:27:32;95828.78;;;1.25;62.36
50394;BME280;36308;46.312;25.288;2024-03-06T02:29:58;95823.06;;;1.21;62.26
50394;BME280;36308;46.312;25.288;2024-03-06T02:32:24;95817.16;;;1.19;62.27
50394;BME280;36308;46.312;25.288;2024-03-06T02:34:50;95818.38;;;1.17;62.61
50394;BME280;36308;46.312;25.288;2024-03-06T02:37:16;95815.31;;;1.13;62.61
50394;BME280;36308;46.312;25.288;2024-03-06T02:39:41;95817.16;;;1.13;62.85
50394;BME280;36308;46.312;25.288;2024-03-06T02:42:07;95814.53;;;1.13;62.72
50394;BME280;36308;46.312;25.288;2024-03-06T02:44:33;95817.78;;;1.08;63.20
50394;BME280;36308;46.312;25.288;2024-03-06T02:46:59;95824.50;;;1.11;62.64
50394;BME280;36308;46.312;25.288;2024-03-06T02:49:24;95834.28;;;1.10;63.30
50394;BME280;36308;46.312;25.288;2024-03-06T02:51:50;95832.03;;;1.07;62.41
50394;BME280;36308;46.312;25.288;2024-03-06T02:54:16;95834.66;;;1.07;62.94
50394;BME280;36308;46.312;25.288;2024-03-06T02:56:42;95841.19;;;1.05;62.71
50394;BME280;36308;46.312;25.288;2024-03-06T02:59:08;95840.38;;;1.04;62.58
50394;BME280;36308;46.312;25.288;2024-03-06T03:01:33;95839.78;;;1.02;62.54
50394;BME280;36308;46.312;25.288;2024-03-06T03:03:59;95841.19;;;0.98;62.85
50394;BME280;36308;46.312;25.288;2024-03-06T03:06:25;95835.06;;;0.91;63.00
50394;BME280;36308;46.312;25.288;2024-03-06T03:08:50;95844.84;;;0.97;62.64
50394;BME280;36308;46.312;25.288;2024-03-06T03:11:16;95841.59;;;0.95;62.66
50394;BME280;36308;46.312;25.288;2024-03-06T03:13:41;95837.69;;;0.84;62.61
50394;BME280;36308;46.312;25.288;2024-03-06T03:16:15;95849.31;;;0.90;63.22
50394;BME280;36308;46.312;25.288;2024-03-06T03:18:43;95843.41;;;0.88;62.51
50394;BME280;36308;46.312;25.288;2024-03-06T03:21:09;95851.56;;;0.86;62.57
50394;BME280;36308;46.312;25.288;2024-03-06T03:23:36;95857.88;;;0.85;62.45
50394;BME280;36308;46.312;25.288;2024-03-06T03:26:01;95849.50;;;0.82;62.90
50394;BME280;36308;46.312;25.288;2024-03-06T03:28:29;95854.81;;;0.82;62.83
50394;BME280;36308;46.312;25.288;2024-03-06T03:30:55;95857.66;;;0.80;62.51
50394;BME280;36308;46.312;25.288;2024-03-06T03:33:22;95861.31;;;0.79;62.88
50394;BME280;36308;46.312;25.288;2024-03-06T03:35:48;95851.31;;;0.74;62.79
50394;BME280;36308;46.312;25.288;2024-03-06T03:38:13;95854.81;;;0.75;63.32
50394;BME280;36308;46.312;25.288;2024-03-06T03:40:39;95855.81;;;0.74;62.96
50394;BME280;36308;46.312;25.288;2024-03-06T03:43:04;95859.47;;;0.73;62.77
50394;BME280;36308;46.312;25.288;2024-03-06T03:45:32;95855.38;;;0.70;63.58
50394;BME280;36308;46.312;25.288;2024-03-06T03:48:04;95852.53;;;0.65;62.89
50394;BME280;36308;46.312;25.288;2024-03-06T03:50:30;95851.50;;;0.66;63.46
50394;BME280;36308;46.312;25.288;2024-03-06T03:52:57;95854.38;;;0.65;63.30
50394;BME280;36308;46.312;25.288;2024-03-06T03:55:25;95845.78;;;0.56;63.37
50394;BME280;36308;46.312;25.288;2024-03-06T03:57:51;95852.91;;;0.62;63.26
50394;BME280;36308;46.312;25.288;2024-03-06T04:00:18;95853.94;;;0.61;63.04
50394;BME280;36308;46.312;25.288;2024-03-06T04:02:44;95858.44;;;0.60;63.73
50394;BME280;36308;46.312;25.288;2024-03-06T04:05:09;95857.59;;;0.60;63.64
50394;BME280;36308;46.312;25.288;2024-03-06T04:07:38;95865.53;;;0.60;63.65
50394;BME280;36308;46.312;25.288;2024-03-06T04:10:04;95861.88;;;0.61;64.33
50394;BME280;36308;46.312;25.288;2024-03-06T04:12:29;95872.28;;;0.63;64.08
50394;BME280;36308;46.312;25.288;2024-03-06T04:14:56;95874.06;;;0.62;64.12
50394;BME280;36308;46.312;25.288;2024-03-06T04:17:21;95874.06;;;0.62;63.85
50394;BME280;36308;46.312;25.288;2024-03-06T04:19:47;95866.56;;;0.59;63.88
50394;BME280;36308;46.312;25.288;2024-03-06T04:22:14;95876.53;;;0.64;64.08
50394;BME280;36308;46.312;25.288;2024-03-06T04:24:42;95884.28;;;0.65;64.01
50394;BME280;36308;46.312;25.288;2024-03-06T04:27:08;95883.25;;;0.66;64.33
50394;BME280;36308;46.312;25.288;2024-03-06T04:29:34;95885.91;;;0.66;63.98
50394;BME280;36308;46.312;25.288;2024-03-06T04:31:59;95887.34;;;0.69;64.22
50394;BME280;36308;46.312;25.288;2024-03-06T04:34:24;95882.25;;;0.67;64.48
50394;BME280;36308;46.312;25.288;2024-03-06T04:36:50;95886.13;;;0.71;64.02
50394;BME280;36308;46.312;25.288;2024-03-06T04:39:15;95890.41;;;0.72;64.79
50394;BME280;36308;46.312;25.288;2024-03-06T04:41:41;95892.03;;;0.73;64.63
50394;BME280;36308;46.312;25.288;2024-03-06T04:44:06;95893.47;;;0.76;64.06
50394;BME280;36308;46.312;25.288;2024-03-06T04:46:32;95898.56;;;0.77;64.73
50394;BME280;36308;46.312;25.288;2024-03-06T04:48:57;95902.03;;;0.78;64.47
50394;BME280;36308;46.312;25.288;2024-03-06T04:51:23;95895.50;;;0.80;64.44
50394;BME280;36308;46.312;25.288;2024-03-06T04:53:49;95902.44;;;0.82;64.58
50394;BME280;36308;46.312;25.288;2024-03-06T04:56:15;95899.81;;;0.82;64.56
50394;BME280;36308;46.312;25.288;2024-03-06T04:58:44;95888.59;;;0.79;64.19
50394;BME280;36308;46.312;25.288;2024-03-06T05:01:10;95894.94;;;0.85;64.52
50394;BME280;36308;46.312;25.288;2024-03-06T05:03:35;95903.69;;;0.86;64.82
50394;BME280;36308;46.312;25.288;2024-03-06T05:06:01;95910.59;;;0.87;65.02
50394;BME280;36308;46.312;25.288;2024-03-06T05:08:27;95910.59;;;0.87;64.27
50394;BME280;36308;46.312;25.288;2024-03-06T05:10:54;95914.88;;;0.88;64.73
50394;BME280;36308;46.312;25.288;2024-03-06T05:13:20;95903.50;;;0.87;64.37
50394;BME280;36308;46.312;25.288;2024-03-06T05:15:45;95908.56;;;0.89;64.72
50394;BME280;36308;46.312;25.288;2024-03-06T05:18:11;95912.25;;;0.88;64.62
50394;BME280;36308;46.312;25.288;2024-03-06T05:20:36;95913.66;;;0.90;64.94
50394;BME280;36308;46.312;25.288;2024-03-06T05:23:02;95910.19;;;0.90;64.52
50394;BME280;36308;46.312;25.288;2024-03-06T05:25:28;95907.53;;;0.83;64.31
50394;BME280;36308;46.312;25.288;2024-03-06T05:27:54;95916.50;;;0.89;64.90
50394;BME280;36308;46.312;25.288;2024-03-06T05:30:19;95922.41;;;0.91;64.92
50394;BME280;36308;46.312;25.288;2024-03-06T05:32:45;95921.41;;;0.92;64.88
50394;BME280;36308;46.312;25.288;2024-03-06T05:35:12;95929.13;;;0.93;64.83
50394;BME280;36308;46.312;25.288;2024-03-06T05:37:38;95927.69;;;0.91;65.13
50394;BME280;36308;46.312;25.288;2024-03-06T05:40:04;95913.25;;;0.87;65.06
50394;BME280;36308;46.312;25.288;2024-03-06T05:42:30;95935.28;;;1.00;65.02
50394;BME280;36308;46.312;25.288;2024-03-06T05:44:57;95931.41;;;1.03;65.02
50394;BME280;36308;46.312;25.288;2024-03-06T05:47:26;95942.22;;;1.08;64.89
50394;BME280;36308;46.312;25.288;2024-03-06T05:49:52;95927.97;;;1.09;64.88
50394;BME280;36308;46.312;25.288;2024-03-06T05:52:18;95931.63;;;1.15;64.60
50394;BME280;36308;46.312;25.288;2024-03-06T05:54:43;95904.72;;;1.05;64.64
50394;BME280;36308;46.312;25.288;2024-03-06T05:57:09;95928.38;;;1.19;65.26
50394;BME280;36308;46.312;25.288;2024-03-06T05:59:34;95938.19;;;1.26;64.71
50394;BME280;36308;46.312;25.288;2024-03-06T06:02:00;95941.84;;;1.31;65.15
50394;BME280;36308;46.312;25.288;2024-03-06T06:04:25;95938.59;;;1.36;65.40
50394;BME280;36308;46.312;25.288;2024-03-06T06:06:51;95942.91;;;1.44;65.65
50394;BME280;36308;46.312;25.288;2024-03-06T06:09:17;95941.25;;;1.49;65.84
50394;BME280;36308;46.312;25.288;2024-03-06T06:11:43;95943.09;;;1.55;65.49
50394;BME280;36308;46.312;25.288;2024-03-06T06:14:09;95940.25;;;1.64;65.32
50394;BME280;36308;46.312;25.288;2024-03-06T06:16:38;95942.69;;;1.72;65.27
50394;BME280;36308;46.312;25.288;2024-03-06T06:19:06;95941.88;;;1.78;65.48
50394;BME280;36308;46.312;25.288;2024-03-06T06:21:32;95939.00;;;1.86;65.78
50394;BME280;36308;46.312;25.288;2024-03-06T06:23:58;95939.41;;;1.96;65.87
50394;BME280;36308;46.312;25.288;2024-03-06T06:26:24;95941.66;;;2.06;65.70
50394;BME280;36308;46.312;25.288;2024-03-06T06:28:49;95937.75;;;2.15;65.93
50394;BME280;36308;46.312;25.288;2024-03-06T06:31:15;95941.41;;;2.28;65.97
50394;BME280;36308;46.312;25.288;2024-03-06T06:33:41;95937.53;;;2.37;65.52
50394;BME280;36308;46.312;25.288;2024-03-06T06:36:06;95935.25;;;2.47;65.98
50394;BME280;36308;46.312;25.288;2024-03-06T06:38:32;95932.56;;;2.54;65.45
50394;BME280;36308;46.312;25.288;2024-03-06T06:40:57;95943.94;;;2.68;65.73
50394;BME280;36308;46.312;25.288;2024-03-06T06:43:24;95937.19;;;2.78;65.57
50394;BME280;36308;46.312;25.288;2024-03-06T06:45:49;95935.88;;;2.94;65.10
50394;BME280;36308;46.312;25.288;2024-03-06T06:48:16;95922.56;;;3.01;65.61
50394;BME280;36308;46.312;25.288;2024-03-06T06:50:41;95927.56;;;3.22;65.75
50394;BME280;36308;46.312;25.288;2024-03-06T06:53:07;95935.75;;;3.46;65.22
50394;BME280;36308;46.312;25.288;2024-03-06T06:55:32;95940.56;;;3.62;65.20
50394;BME280;36308;46.312;25.288;2024-03-06T06:57:58;95934.44;;;3.87;65.14
50394;BME280;36308;46.312;25.288;2024-03-06T07:00:24;95917.47;;;4.07;65.26
50394;BME280;36308;46.312;25.288;2024-03-06T07:02:50;95937.56;;;4.46;65.01
50394;BME280;36308;46.312;25.288;2024-03-06T07:05:17;95939.03;;;4.79;64.60
50394;BME280;36308;46.312;25.288;2024-03-06T07:07:45;95941.28;;;5.12;64.03
50394;BME280;36308;46.312;25.288;2024-03-06T07:10:11;95942.09;;;5.43;63.45
50394;BME280;36308;46.312;25.288;2024-03-06T07:12:36;95935.31;;;5.71;62.74
50394;BME280;36308;46.312;25.288;2024-03-06T07:15:02;95934.94;;;5.97;61.14
50394;BME280;36308;46.312;25.288;2024-03-06T07:17:28;95933.22;;;6.15;60.71
50394;BME280;36308;46.312;25.288;2024-03-06T07:19:53;95930.88;;;6.30;60.13
50394;BME280;36308;46.312;25.288;2024-03-06T07:22:19;95933.91;;;6.45;59.75
50394;BME280;36308;46.312;25.288;2024-03-06T07:24:45;95928.06;;;6.60;59.89
50394;BME280;36308;46.312;25.288;2024-03-06T07:27:10;95931.41;;;6.79;59.65
50394;BME280;36308;46.312;25.288;2024-03-06T07:29:37;95924.75;;;6.94;59.60
50394;BME280;36308;46.312;25.288;2024-03-06T07:32:03;95933.41;;;7.13;58.78
50394;BME280;36308;46.312;25.288;2024-03-06T07:34:30;95929.72;;;7.31;58.71
50394;BME280;36308;46.312;25.288;2024-03-06T07:36:56;95924.66;;;7.46;58.15
50394;BME280;36308;46.312;25.288;2024-03-06T07:39:23;95923.63;;;7.64;57.83
50394;BME280;36308;46.312;25.288;2024-03-06T07:41:49;95923.66;;;7.81;56.89
50394;BME280;36308;46.312;25.288;2024-03-06T07:44:14;95926.09;;;7.99;56.94
50394;BME280;36308;46.312;25.288;2024-03-06T07:46:40;95923.16;;;8.18;56.61
50394;BME280;36308;46.312;25.288;2024-03-06T07:49:05;95917.50;;;8.36;56.04
50394;BME280;36308;46.312;25.288;2024-03-06T07:51:34;95917.25;;;8.55;55.69
50394;BME280;36308;46.312;25.288;2024-03-06T07:54:01;95914.28;;;8.73;55.59
50394;BME280;36308;46.312;25.288;2024-03-06T07:56:27;95911.31;;;8.92;55.41
50394;BME280;36308;46.312;25.288;2024-03-06T07:58:53;95924.41;;;9.10;54.49
50394;BME280;36308;46.312;25.288;2024-03-06T08:01:19;95911.69;;;9.27;52.56
50394;BME280;36308;46.312;25.288;2024-03-06T08:03:46;95921.81;;;9.42;51.96
50394;BME280;36308;46.312;25.288;2024-03-06T08:06:12;95919.78;;;9.55;51.60
50394;BME280;36308;46.312;25.288;2024-03-06T08:08:41;95915.31;;;9.65;52.17
50394;BME280;36308;46.312;25.288;2024-03-06T08:11:06;95909.28;;;9.80;50.66
50394;BME280;36308;46.312;25.288;2024-03-06T08:13:32;95908.59;;;9.95;50.78
50394;BME280;36308;46.312;25.288;2024-03-06T08:15:57;95906.53;;;10.07;50.67
50394;BME280;36308;46.312;25.288;2024-03-06T08:18:23;95904.78;;;10.23;50.46
50394;BME280;36308;46.312;25.288;2024-03-06T08:20:48;95911.34;;;10.38;49.52
50394;BME280;36308;46.312;25.288;2024-03-06T08:23:14;95910.63;;;10.52;49.71
50394;BME280;36308;46.312;25.288;2024-03-06T08:25:39;95914.47;;;10.67;49.26
50394;BME280;36308;46.312;25.288;2024-03-06T08:28:05;95912.94;;;10.86;49.52
50394;BME280;36308;46.312;25.288;2024-03-06T08:30:31;95914.09;;;11.01;48.16
50394;BME280;36308;46.312;25.288;2024-03-06T08:32:57;95920.59;;;11.15;48.20
50394;BME280;36308;46.312;25.288;2024-03-06T08:35:23;95918.50;;;11.27;48.00
50394;BME280;36308;46.312;25.288;2024-03-06T08:37:49;95921.75;;;11.40;47.59
50394;BME280;36308;46.312;25.288;2024-03-06T08:40:16;95920.72;;;11.56;47.07
50394;BME280;36308;46.312;25.288;2024-03-06T08:42:55;95918.03;;;11.71;47.12
50394;BME280;36308;46.312;25.288;2024-03-06T08:45:21;95918.63;;;11.89;46.95
50394;BME280;36308;46.312;25.288;2024-03-06T08:47:48;95915.94;;;12.04;46.39
50394;BME280;36308;46.312;25.288;2024-03-06T08:50:15;95914.31;;;12.19;46.23
50394;BME280;36308;46.312;25.288;2024-03-06T08:52:40;95912.16;;;12.36;45.53
50394;BME280;36308;46.312;25.288;2024-03-06T08:55:07;95911.59;;;12.49;44.66
50394;BME280;36308;46.312;25.288;2024-03-06T08:57:33;95912.38;;;12.60;44.88
50394;BME280;36308;46.312;25.288;2024-03-06T09:03:20;95909.88;;;12.89;44.02
50394;BME280;36308;46.312;25.288;2024-03-06T09:05:46;95914.97;;;13.01;43.59
50394;BME280;36308;46.312;25.288;2024-03-06T09:08:11;95914.09;;;13.11;43.32
50394;BME280;36308;46.312;25.288;2024-03-06T09:10:37;95914.84;;;13.22;42.61
50394;BME280;36308;46.312;25.288;2024-03-06T09:13:03;95919.16;;;13.33;42.08
50394;BME280;36308;46.312;25.288;2024-03-06T09:15:29;95919.38;;;13.42;42.75
50394;BME280;36308;46.312;25.288;2024-03-06T09:17:54;95912.84;;;13.53;41.97
50394;BME280;36308;46.312;25.288;2024-03-06T09:20:20;95916.00;;;13.65;42.42
50394;BME280;36308;46.312;25.288;2024-03-06T09:22:45;95919.16;;;13.78;41.54
50394;BME280;36308;46.312;25.288;2024-03-06T09:25:12;95920.72;;;13.89;41.57
50394;BME280;36308;46.312;25.288;2024-03-06T09:27:39;95915.78;;;14.01;41.09
50394;BME280;36308;46.312;25.288;2024-03-06T09:30:05;95915.69;;;14.11;40.87
50394;BME280;36308;46.312;25.288;2024-03-06T09:32:30;95912.31;;;14.25;40.87
50394;BME280;36308;46.312;25.288;2024-03-06T09:34:56;95910.06;;;14.37;39.99
50394;BME280;36308;46.312;25.288;2024-03-06T09:37:21;95912.06;;;14.50;39.51
50394;BME280;36308;46.312;25.288;2024-03-06T09:39:47;95921.78;;;14.57;38.91
50394;BME280;36308;46.312;25.288;2024-03-06T09:42:15;95910.13;;;14.61;39.13
50394;BME280;36308;46.312;25.288;2024-03-06T09:44:41;95918.47;;;14.65;38.85
50394;BME280;36308;46.312;25.288;2024-03-06T09:47:07;95917.38;;;14.66;38.55
50394;BME280;36308;46.312;25.288;2024-03-06T09:49:35;95904.63;;;14.71;38.06
50394;BME280;36308;46.312;25.288;2024-03-06T09:52:01;95909.94;;;14.82;38.92
50394;BME280;36308;46.312;25.288;2024-03-06T09:54:29;95910.31;;;14.94;38.43
50394;BME280;36308;46.312;25.288;2024-03-06T09:56:55;95906.69;;;15.04;38.63
50394;BME280;36308;46.312;25.288;2024-03-06T09:59:22;95910.91;;;15.15;38.38
50394;BME280;36308;46.312;25.288;2024-03-06T10:01:50;95910.78;;;15.25;37.71
50394;BME280;36308;46.312;25.288;2024-03-06T10:04:25;95913.31;;;15.35;37.69
50394;BME280;36308;46.312;25.288;2024-03-06T10:06:53;95906.22;;;15.40;37.54
50394;BME280;36308;46.312;25.288;2024-03-06T10:09:22;95902.81;;;15.53;36.92
50394;BME280;36308;46.312;25.288;2024-03-06T10:11:48;95915.69;;;15.61;36.98
50394;BME280;36308;46.312;25.288;2024-03-06T10:14:14;95910.13;;;15.71;37.33
50394;BME280;36308;46.312;25.288;2024-03-06T10:16:59;95907.88;;;15.79;36.24
50394;BME280;36308;46.312;25.288;2024-03-06T10:19:26;95911.84;;;15.86;35.69
50394;BME280;36308;46.312;25.288;2024-03-06T10:21:57;95914.19;;;15.93;36.44
50394;BME280;36308;46.312;25.288;2024-03-06T10:24:27;95907.28;;;16.01;36.24
50394;BME280;36308;46.312;25.288;2024-03-06T10:26:55;95895.25;;;16.07;35.63
50394;BME280;36308;46.312;25.288;2024-03-06T10:29:22;95903.94;;;16.23;35.72
50394;BME280;36308;46.312;25.288;2024-03-06T10:31:52;95910.81;;;16.34;35.71
50394;BME280;36308;46.312;25.288;2024-03-06T10:34:23;95914.38;;;16.48;35.64
50394;BME280;36308;46.312;25.288;2024-03-06T10:37:01;95887.13;;;16.53;35.15
50394;BME280;36308;46.312;25.288;2024-03-06T10:39:30;95892.38;;;16.64;34.81
50394;BME280;36308;46.312;25.288;2024-03-06T10:41:57;95895.00;;;16.69;34.10
50394;BME280;36308;46.312;25.288;2024-03-06T10:44:26;95893.69;;;16.80;34.62
50394;BME280;36308;46.312;25.288;2024-03-06T10:47:02;95892.25;;;16.88;34.38
50394;BME280;36308;46.312;25.288;2024-03-06T10:49:30;95889.31;;;16.98;34.49
50394;BME280;36308;46.312;25.288;2024-03-06T10:52:02;95884.50;;;17.09;34.22
50394;BME280;36308;46.312;25.288;2024-03-06T10:54:32;95881.66;;;17.14;33.94
50394;BME280;36308;46.312;25.288;2024-03-06T10:57:00;95871.63;;;17.14;33.63
50394;BME280;36308;46.312;25.288;2024-03-06T10:59:28;95874.28;;;17.28;33.53
50394;BME280;36308;46.312;25.288;2024-03-06T11:01:58;95871.84;;;17.41;33.40
50394;BME280;36308;46.312;25.288;2024-03-06T11:04:27;95866.81;;;17.48;33.04
50394;BME280;36308;46.312;25.288;2024-03-06T11:06:55;95850.31;;;17.44;33.03
50394;BME280;36308;46.312;25.288;2024-03-06T11:09:21;95872.84;;;17.58;32.84
50394;BME280;36308;46.312;25.288;2024-03-06T11:11:51;95868.69;;;17.61;31.95
50394;BME280;36308;46.312;25.288;2024-03-06T11:14:17;95868.09;;;17.64;32.34
50394;BME280;36308;46.312;25.288;2024-03-06T11:17:10;95862.72;;;17.73;32.38
50394;BME280;36308;46.312;25.288;2024-03-06T11:28:23;95853.28;;;18.15;33.11
50394;BME280;36308;46.312;25.288;2024-03-06T11:31:06;95860.09;;;18.27;32.69
50394;BME280;36308;46.312;25.288;2024-03-06T11:33:36;95856.00;;;18.38;32.29
50394;BME280;36308;46.312;25.288;2024-03-06T11:36:26;95842.41;;;18.47;31.15
50394;BME280;36308;46.312;25.288;2024-03-06T11:38:57;95845.81;;;18.52;31.02
50394;BME280;36308;46.312;25.288;2024-03-06T11:41:29;95844.56;;;18.58;31.29
50394;BME280;36308;46.312;25.288;2024-03-06T11:43:56;95834.53;;;18.68;31.69
50394;BME280;36308;46.312;25.288;2024-03-06T11:46:56;95839.38;;;18.80;31.71
50394;BME280;36308;46.312;25.288;2024-03-06T11:49:32;95833.47;;;18.86;30.99
50394;BME280;36308;46.312;25.288;2024-03-06T11:52:06;95833.47;;;18.86;30.96
50394;BME280;36308;46.312;25.288;2024-03-06T11:54:36;95829.19;;;18.94;30.95
50394;BME280;36308;46.312;25.288;2024-03-06T11:57:03;95829.84;;;19.00;30.26
50394;BME280;36308;46.312;25.288;2024-03-06T11:59:33;95826.47;;;19.03;29.68
50394;BME280;36308;46.312;25.288;2024-03-06T12:02:00;95826.47;;;19.03;30.04
50394;BME280;36308;46.312;25.288;2024-03-06T12:04:27;95823.28;;;19.01;30.16
50394;BME280;36308;46.312;25.288;2024-03-06T12:06:56;95823.75;;;19.03;30.15
50394;BME280;36308;46.312;25.288;2024-03-06T12:09:22;95822.00;;;19.07;29.98
50394;BME280;36308;46.312;25.288;2024-03-06T12:11:47;95811.28;;;19.10;29.90
50394;BME280;36308;46.312;25.288;2024-03-06T12:14:22;95804.38;;;19.13;30.29
50394;BME280;36308;46.312;25.288;2024-03-06T12:16:59;95815.94;;;19.18;29.92
50394;BME280;36308;46.312;25.288;2024-03-06T12:19:26;95818.50;;;19.15;29.59
50394;BME280;36308;46.312;25.288;2024-03-06T12:21:53;95804.25;;;19.09;29.45
50394;BME280;36308;46.312;25.288;2024-03-06T12:24:19;95806.31;;;19.04;29.12
50394;BME280;36308;46.312;25.288;2024-03-06T12:26:46;95808.69;;;18.96;29.31
50394;BME280;36308;46.312;25.288;2024-03-06T12:29:17;95811.25;;;18.93;29.69
50394;BME280;36308;46.312;25.288;2024-03-06T12:31:46;95802.91;;;18.89;29.89
50394;BME280;36308;46.312;25.288;2024-03-06T12:34:14;95800.97;;;18.81;29.20
50394;BME280;36308;46.312;25.288;2024-03-06T12:36:43;95804.72;;;18.71;29.26
50394;BME280;36308;46.312;25.288;2024-03-06T12:39:08;95796.53;;;18.63;29.46
50394;BME280;36308;46.312;25.288;2024-03-06T12:41:41;95800.66;;;18.51;29.42
50394;BME280;36308;46.312;25.288;2024-03-06T12:44:06;95793.59;;;18.50;29.70
50394;BME280;36308;46.312;25.288;2024-03-06T12:46:32;95797.47;;;18.49;29.43
50394;BME280;36308;46.312;25.288;2024-03-06T12:52:19;95788.84;;;18.56;29.52
50394;BME280;36308;46.312;25.288;2024-03-06T12:54:45;95792.22;;;18.62;29.83
50394;BME280;36308;46.312;25.288;2024-03-06T12:57:11;95787.91;;;18.69;30.19
50394;BME280;36308;46.312;25.288;2024-03-06T12:59:36;95789.72;;;18.74;29.90
50394;BME280;36308;46.312;25.288;2024-03-06T13:02:02;95784.38;;;18.69;29.66
50394;BME280;36308;46.312;25.288;2024-03-06T13:04:28;95792.44;;;18.74;29.51
50394;BME280;36308;46.312;25.288;2024-03-06T13:06:53;95777.34;;;18.68;29.40
50394;BME280;36308;46.312;25.288;2024-03-06T13:09:19;95785.03;;;18.66;29.11
50394;BME280;36308;46.312;25.288;2024-03-06T13:11:44;95779.72;;;18.61;28.82
50394;BME280;36308;46.312;25.288;2024-03-06T13:14:10;95783.50;;;18.51;28.92
50394;BME280;36308;46.312;25.288;2024-03-06T13:16:37;95780.16;;;18.45;29.07
50394;BME280;36308;46.312;25.288;2024-03-06T13:19:02;95778.34;;;18.41;29.48